sensor_id;sensor_type;location;lat;lon;timestamp;temperature;humidity
77052;SHT30;65980;44.898;8.602;2023-02-04T00:00:55;6.87;85.79
77052;SHT30;65980;44.898;8.602;2023-02-04T00:04:00;7.01;84.66
77052;SHT30;65980;44.898;8.602;2023-02-04T00:07:06;7.07;84.38
77052;SHT30;65980;44.898;8.602;2023-02-04T00:10:11;6.96;84.35
77052;SHT30;65980;44.898;8.602;2023-02-04T00:13:16;6.85;84.00
77052;SHT30;65980;44.898;8.602;2023-02-04T00:16:20;6.66;84.43
77052;SHT30;65980;44.898;8.602;2023-02-04T00:19:24;6.59;83.84
77052;SHT30;65980;44.898;8.602;2023-02-04T00:22:29;6.44;84.08
77052;SHT30;65980;44.898;8.602;2023-02-04T00:25:32;6.42;84.68
77052;SHT30;65980;44.898;8.602;2023-02-04T00:28:36;6.51;83.73
77052;SHT30;65980;44.898;8.602;2023-02-04T00:31:40;6.38;83.99
77052;SHT30;65980;44.898;8.602;2023-02-04T00:34:44;6.32;84.81
77052;SHT30;65980;44.898;8.602;2023-02-04T00:37:50;6.30;84.52
77052;SHT30;65980;44.898;8.602;2023-02-04T00:40:54;6.32;84.23
77052;SHT30;65980;44.898;8.602;2023-02-04T00:43:58;6.34;84.17
77052;SHT30;65980;44.898;8.602;2023-02-04T00:47:03;6.17;85.05
77052;SHT30;65980;44.898;8.602;2023-02-04T00:50:08;6.20;85.41
77052;SHT30;65980;44.898;8.602;2023-02-04T00:53:12;6.41;85.83
77052;SHT30;65980;44.898;8.602;2023-02-04T00:56:17;6.65;83.80
77052;SHT30;65980;44.898;8.602;2023-02-04T00:59:21;6.35;84.22
77052;SHT30;65980;44.898;8.602;2023-02-04T01:02:25;6.17;84.44
77052;SHT30;65980;44.898;8.602;2023-02-04T01:05:30;6.10;84.83
77052;SHT30;65980;44.898;8.602;2023-02-04T01:08:34;5.97;84.45
77052;SHT30;65980;44.898;8.602;2023-02-04T01:11:38;5.87;85.21
77052;SHT30;65980;44.898;8.602;2023-02-04T01:14:44;5.86;85.26
77052;SHT30;65980;44.898;8.602;2023-02-04T01:17:48;5.83;85.20
77052;SHT30;65980;44.898;8.602;2023-02-04T01:20:52;5.69;85.72
77052;SHT30;65980;44.898;8.602;2023-02-04T01:23:58;5.75;85.60
77052;SHT30;65980;44.898;8.602;2023-02-04T01:27:03;5.90;86.13
77052;SHT30;65980;44.898;8.602;2023-02-04T01:30:11;5.90;85.34
77052;SHT30;65980;44.898;8.602;2023-02-04T01:33:16;5.76;85.60
77052;SHT30;65980;44.898;8.602;2023-02-04T01:36:21;5.72;85.98
77052;SHT30;65980;44.898;8.602;2023-02-04T01:39:26;5.86;84.80
77052;SHT30;65980;44.898;8.602;2023-02-04T01:42:31;5.75;83.31
77052;SHT30;65980;44.898;8.602;2023-02-04T01:45:36;4.61;85.02
77052;SHT30;65980;44.898;8.602;2023-02-04T01:48:42;4.69;85.71
77052;SHT30;65980;44.898;8.602;2023-02-04T01:51:48;5.09;83.62
77052;SHT30;65980;44.898;8.602;2023-02-04T01:54:52;5.26;83.23
77052;SHT30;65980;44.898;8.602;2023-02-04T01:57:57;5.20;82.53
77052;SHT30;65980;44.898;8.602;2023-02-04T02:01:08;5.16;84.31
77052;SHT30;65980;44.898;8.602;2023-02-04T02:04:17;4.99;84.66
77052;SHT30;65980;44.898;8.602;2023-02-04T02:07:21;4.97;83.80
77052;SHT30;65980;44.898;8.602;2023-02-04T02:10:27;4.92;85.54
77052;SHT30;65980;44.898;8.602;2023-02-04T02:13:31;5.19;84.64
77052;SHT30;65980;44.898;8.602;2023-02-04T02:16:35;5.45;83.48
77052;SHT30;65980;44.898;8.602;2023-02-04T02:19:41;5.54;83.54
77052;SHT30;65980;44.898;8.602;2023-02-04T02:26:14;4.97;86.21
77052;SHT30;65980;44.898;8.602;2023-02-04T02:29:20;4.82;85.06
77052;SHT30;65980;44.898;8.602;2023-02-04T02:32:25;4.76;87.09
77052;SHT30;65980;44.898;8.602;2023-02-04T02:35:31;5.00;87.01
77052;SHT30;65980;44.898;8.602;2023-02-04T02:38:37;5.03;83.77
77052;SHT30;65980;44.898;8.602;2023-02-04T02:41:42;5.32;82.32
77052;SHT30;65980;44.898;8.602;2023-02-04T02:44:48;4.99;83.96
77052;SHT30;65980;44.898;8.602;2023-02-04T02:47:55;4.71;84.76
77052;SHT30;65980;44.898;8.602;2023-02-04T02:51:00;4.96;81.70
77052;SHT30;65980;44.898;8.602;2023-02-04T02:54:04;5.12;82.48
77052;SHT30;65980;44.898;8.602;2023-02-04T02:57:14;5.27;82.18
77052;SHT30;65980;44.898;8.602;2023-02-04T03:00:27;5.41;81.38
77052;SHT30;65980;44.898;8.602;2023-02-04T03:03:40;5.31;81.05
77052;SHT30;65980;44.898;8.602;2023-02-04T03:06:45;5.32;80.12
77052;SHT30;65980;44.898;8.602;2023-02-04T03:09:50;4.82;83.39
77052;SHT30;65980;44.898;8.602;2023-02-04T03:12:56;4.68;83.14
77052;SHT30;65980;44.898;8.602;2023-02-04T03:16:00;4.66;83.05
77052;SHT30;65980;44.898;8.602;2023-02-04T03:19:06;4.61;82.24
77052;SHT30;65980;44.898;8.602;2023-02-04T03:22:11;4.85;81.75
77052;SHT30;65980;44.898;8.602;2023-02-04T03:25:16;4.13;84.55
77052;SHT30;65980;44.898;8.602;2023-02-04T03:28:20;4.04;85.55
77052;SHT30;65980;44.898;8.602;2023-02-04T03:31:25;4.48;84.85
77052;SHT30;65980;44.898;8.602;2023-02-04T03:34:29;4.77;82.75
77052;SHT30;65980;44.898;8.602;2023-02-04T03:37:33;4.58;85.31
77052;SHT30;65980;44.898;8.602;2023-02-04T03:40:37;4.66;84.22
77052;SHT30;65980;44.898;8.602;2023-02-04T03:43:42;4.76;84.24
77052;SHT30;65980;44.898;8.602;2023-02-04T03:46:46;4.80;84.15
77052;SHT30;65980;44.898;8.602;2023-02-04T03:49:51;4.85;83.68
77052;SHT30;65980;44.898;8.602;2023-02-04T03:52:55;4.90;83.14
77052;SHT30;65980;44.898;8.602;2023-02-04T03:56:00;4.48;84.39
77052;SHT30;65980;44.898;8.602;2023-02-04T03:59:06;4.33;85.96
77052;SHT30;65980;44.898;8.602;2023-02-04T04:02:10;4.65;87.39
77052;SHT30;65980;44.898;8.602;2023-02-04T04:05:14;4.21;86.08
77052;SHT30;65980;44.898;8.602;2023-02-04T04:08:19;4.37;89.19
77052;SHT30;65980;44.898;8.602;2023-02-04T04:11:23;4.66;86.88
77052;SHT30;65980;44.898;8.602;2023-02-04T04:14:28;4.75;84.58
77052;SHT30;65980;44.898;8.602;2023-02-04T04:17:33;4.76;83.77
77052;SHT30;65980;44.898;8.602;2023-02-04T04:20:38;4.61;85.27
77052;SHT30;65980;44.898;8.602;2023-02-04T04:23:42;4.83;82.96
77052;SHT30;65980;44.898;8.602;2023-02-04T04:26:46;4.37;85.96
77052;SHT30;65980;44.898;8.602;2023-02-04T04:29:50;4.41;85.43
77052;SHT30;65980;44.898;8.602;2023-02-04T04:32:56;4.57;82.98
77052;SHT30;65980;44.898;8.602;2023-02-04T04:36:00;4.18;87.82
77052;SHT30;65980;44.898;8.602;2023-02-04T04:39:04;4.34;86.83
77052;SHT30;65980;44.898;8.602;2023-02-04T04:42:09;4.00;86.90
77052;SHT30;65980;44.898;8.602;2023-02-04T04:45:13;4.40;83.90
77052;SHT30;65980;44.898;8.602;2023-02-04T04:48:17;4.24;88.00
77052;SHT30;65980;44.898;8.602;2023-02-04T04:51:22;4.24;87.39
77052;SHT30;65980;44.898;8.602;2023-02-04T04:54:29;4.04;87.48
77052;SHT30;65980;44.898;8.602;2023-02-04T04:57:33;4.13;87.50
77052;SHT30;65980;44.898;8.602;2023-02-04T05:00:37;4.14;84.33
77052;SHT30;65980;44.898;8.602;2023-02-04T05:03:41;3.79;84.75
77052;SHT30;65980;44.898;8.602;2023-02-04T05:06:46;3.28;88.94
77052;SHT30;65980;44.898;8.602;2023-02-04T05:09:54;3.13;89.31
77052;SHT30;65980;44.898;8.602;2023-02-04T05:12:59;3.13;88.88
77052;SHT30;65980;44.898;8.602;2023-02-04T05:16:04;3.06;88.36
77052;SHT30;65980;44.898;8.602;2023-02-04T05:19:09;2.93;88.91
77052;SHT30;65980;44.898;8.602;2023-02-04T05:22:15;2.86;89.30
77052;SHT30;65980;44.898;8.602;2023-02-04T05:25:22;2.86;89.16
77052;SHT30;65980;44.898;8.602;2023-02-04T05:28:27;2.97;88.84
77052;SHT30;65980;44.898;8.602;2023-02-04T05:31:33;2.95;88.77
77052;SHT30;65980;44.898;8.602;2023-02-04T05:34:39;2.88;88.76
77052;SHT30;65980;44.898;8.602;2023-02-04T05:37:44;2.76;89.26
77052;SHT30;65980;44.898;8.602;2023-02-04T05:40:50;2.88;89.29
77052;SHT30;65980;44.898;8.602;2023-02-04T05:43:59;3.03;88.70
77052;SHT30;65980;44.898;8.602;2023-02-04T05:47:10;2.88;88.61
77052;SHT30;65980;44.898;8.602;2023-02-04T05:50:15;2.84;89.04
77052;SHT30;65980;44.898;8.602;2023-02-04T05:53:24;2.86;88.45
77052;SHT30;65980;44.898;8.602;2023-02-04T05:56:30;2.75;88.91
77052;SHT30;65980;44.898;8.602;2023-02-04T05:59:35;2.66;88.82
77052;SHT30;65980;44.898;8.602;2023-02-04T06:02:40;2.62;89.55
77052;SHT30;65980;44.898;8.602;2023-02-04T06:05:44;2.72;89.57
77052;SHT30;65980;44.898;8.602;2023-02-04T06:08:50;2.81;89.30
77052;SHT30;65980;44.898;8.602;2023-02-04T06:11:54;2.84;89.42
77052;SHT30;65980;44.898;8.602;2023-02-04T06:14:59;2.92;89.51
77052;SHT30;65980;44.898;8.602;2023-02-04T06:18:08;2.84;90.21
77052;SHT30;65980;44.898;8.602;2023-02-04T06:21:18;3.04;90.01
77052;SHT30;65980;44.898;8.602;2023-02-04T06:24:23;3.28;89.70
77052;SHT30;65980;44.898;8.602;2023-02-04T06:27:28;3.23;89.48
77052;SHT30;65980;44.898;8.602;2023-02-04T06:30:33;2.99;88.06
77052;SHT30;65980;44.898;8.602;2023-02-04T06:33:42;3.19;88.28
77052;SHT30;65980;44.898;8.602;2023-02-04T06:36:47;3.55;86.60
77052;SHT30;65980;44.898;8.602;2023-02-04T06:39:52;3.34;88.27
77052;SHT30;65980;44.898;8.602;2023-02-04T06:42:59;3.45;87.41
77052;SHT30;65980;44.898;8.602;2023-02-04T06:46:03;3.21;88.15
77052;SHT30;65980;44.898;8.602;2023-02-04T06:49:08;3.24;87.50
77052;SHT30;65980;44.898;8.602;2023-02-04T06:52:12;3.35;87.86
77052;SHT30;65980;44.898;8.602;2023-02-04T06:55:16;3.42;87.84
77052;SHT30;65980;44.898;8.602;2023-02-04T06:58:21;3.54;87.08
77052;SHT30;65980;44.898;8.602;2023-02-04T07:01:26;3.82;86.06
77052;SHT30;65980;44.898;8.602;2023-02-04T07:04:32;4.06;84.27
77052;SHT30;65980;44.898;8.602;2023-02-04T07:07:37;3.89;85.48
77052;SHT30;65980;44.898;8.602;2023-02-04T07:10:42;3.57;87.79
77052;SHT30;65980;44.898;8.602;2023-02-04T07:13:47;3.75;86.81
77052;SHT30;65980;44.898;8.602;2023-02-04T07:16:52;3.83;85.97
77052;SHT30;65980;44.898;8.602;2023-02-04T07:19:56;3.74;86.49
77052;SHT30;65980;44.898;8.602;2023-02-04T07:23:00;3.90;85.90
77052;SHT30;65980;44.898;8.602;2023-02-04T07:26:10;3.92;85.72
77052;SHT30;65980;44.898;8.602;2023-02-04T07:29:14;3.92;85.40
77052;SHT30;65980;44.898;8.602;2023-02-04T07:32:18;3.95;86.53
77052;SHT30;65980;44.898;8.602;2023-02-04T07:35:23;4.21;84.56
77052;SHT30;65980;44.898;8.602;2023-02-04T07:38:27;4.34;85.98
77052;SHT30;65980;44.898;8.602;2023-02-04T07:41:31;5.12;82.91
77052;SHT30;65980;44.898;8.602;2023-02-04T07:44:36;6.64;75.53
77052;SHT30;65980;44.898;8.602;2023-02-04T07:47:41;8.07;71.03
77052;SHT30;65980;44.898;8.602;2023-02-04T07:50:48;8.13;69.26
77052;SHT30;65980;44.898;8.602;2023-02-04T07:53:54;8.01;70.74
77052;SHT30;65980;44.898;8.602;2023-02-04T07:56:59;9.58;65.79
77052;SHT30;65980;44.898;8.602;2023-02-04T08:00:04;8.38;68.87
77052;SHT30;65980;44.898;8.602;2023-02-04T08:03:17;9.07;66.64
77052;SHT30;65980;44.898;8.602;2023-02-04T08:06:22;9.00;65.88
77052;SHT30;65980;44.898;8.602;2023-02-04T08:09:27;7.32;71.20
77052;SHT30;65980;44.898;8.602;2023-02-04T08:12:32;6.46;74.01
77052;SHT30;65980;44.898;8.602;2023-02-04T08:15:36;6.03;76.23
77052;SHT30;65980;44.898;8.602;2023-02-04T08:18:40;5.49;79.16
77052;SHT30;65980;44.898;8.602;2023-02-04T08:21:44;6.04;77.67
77052;SHT30;65980;44.898;8.602;2023-02-04T08:24:49;6.35;76.51
77052;SHT30;65980;44.898;8.602;2023-02-04T08:27:52;6.93;74.93
77052;SHT30;65980;44.898;8.602;2023-02-04T08:30:57;7.03;74.85
77052;SHT30;65980;44.898;8.602;2023-02-04T08:34:03;7.72;72.53
77052;SHT30;65980;44.898;8.602;2023-02-04T08:37:08;8.76;69.61
77052;SHT30;65980;44.898;8.602;2023-02-04T08:40:13;8.41;70.20
77052;SHT30;65980;44.898;8.602;2023-02-04T08:43:17;7.82;72.74
77052;SHT30;65980;44.898;8.602;2023-02-04T08:46:22;8.45;71.35
77052;SHT30;65980;44.898;8.602;2023-02-04T08:49:27;7.82;73.56
77052;SHT30;65980;44.898;8.602;2023-02-04T08:52:31;7.69;73.61
77052;SHT30;65980;44.898;8.602;2023-02-04T08:55:36;9.11;70.70
77052;SHT30;65980;44.898;8.602;2023-02-04T08:58:40;9.48;67.94
77052;SHT30;65980;44.898;8.602;2023-02-04T09:01:44;10.11;65.51
77052;SHT30;65980;44.898;8.602;2023-02-04T09:04:52;9.20;68.60
77052;SHT30;65980;44.898;8.602;2023-02-04T09:07:57;8.59;70.68
77052;SHT30;65980;44.898;8.602;2023-02-04T09:11:02;9.18;68.31
77052;SHT30;65980;44.898;8.602;2023-02-04T09:14:06;9.36;67.64
77052;SHT30;65980;44.898;8.602;2023-02-04T09:17:11;9.55;67.45
77052;SHT30;65980;44.898;8.602;2023-02-04T09:20:15;9.67;67.72
77052;SHT30;65980;44.898;8.602;2023-02-04T09:23:19;11.10;62.79
77052;SHT30;65980;44.898;8.602;2023-02-04T09:26:24;11.72;60.60
77052;SHT30;65980;44.898;8.602;2023-02-04T09:29:28;13.51;54.85
77052;SHT30;65980;44.898;8.602;2023-02-04T09:32:31;12.32;58.69
77052;SHT30;65980;44.898;8.602;2023-02-04T09:35:36;12.80;58.07
77052;SHT30;65980;44.898;8.602;2023-02-04T09:38:41;12.90;57.40
77052;SHT30;65980;44.898;8.602;2023-02-04T09:41:50;13.52;55.42
77052;SHT30;65980;44.898;8.602;2023-02-04T09:44:57;14.93;50.74
77052;SHT30;65980;44.898;8.602;2023-02-04T09:48:05;14.96;50.49
77052;SHT30;65980;44.898;8.602;2023-02-04T09:51:17;13.99;52.39
77052;SHT30;65980;44.898;8.602;2023-02-04T09:54:26;14.63;51.99
77052;SHT30;65980;44.898;8.602;2023-02-04T09:57:32;14.66;51.81
77052;SHT30;65980;44.898;8.602;2023-02-04T10:00:37;13.45;55.63
77052;SHT30;65980;44.898;8.602;2023-02-04T10:03:43;13.08;56.58
77052;SHT30;65980;44.898;8.602;2023-02-04T10:06:51;12.94;57.02
77052;SHT30;65980;44.898;8.602;2023-02-04T10:09:54;14.34;53.79
77052;SHT30;65980;44.898;8.602;2023-02-04T10:13:01;15.34;50.17
77052;SHT30;65980;44.898;8.602;2023-02-04T10:16:12;15.90;48.16
77052;SHT30;65980;44.898;8.602;2023-02-04T10:19:16;17.75;43.26
77052;SHT30;65980;44.898;8.602;2023-02-04T10:22:21;19.79;37.80
77052;SHT30;65980;44.898;8.602;2023-02-04T10:25:25;16.84;43.32
77052;SHT30;65980;44.898;8.602;2023-02-04T10:28:35;16.93;46.21
77052;SHT30;65980;44.898;8.602;2023-02-04T10:31:44;18.03;41.80
77052;SHT30;65980;44.898;8.602;2023-02-04T10:34:49;16.38;44.71
77052;SHT30;65980;44.898;8.602;2023-02-04T10:38:04;15.20;47.74
77052;SHT30;65980;44.898;8.602;2023-02-04T10:41:12;14.80;47.04
77052;SHT30;65980;44.898;8.602;2023-02-04T10:44:34;15.54;46.77
77052;SHT30;65980;44.898;8.602;2023-02-04T10:47:49;17.41;42.10
77052;SHT30;65980;44.898;8.602;2023-02-04T10:50:57;17.18;40.92
77052;SHT30;65980;44.898;8.602;2023-02-04T10:54:01;18.00;40.40
77052;SHT30;65980;44.898;8.602;2023-02-04T10:57:28;18.10;37.97
77052;SHT30;65980;44.898;8.602;2023-02-04T11:00:32;19.25;37.51
77052;SHT30;65980;44.898;8.602;2023-02-04T11:03:37;21.94;33.12
77052;SHT30;65980;44.898;8.602;2023-02-04T11:06:43;23.37;30.46
77052;SHT30;65980;44.898;8.602;2023-02-04T11:09:47;20.59;34.21
77052;SHT30;65980;44.898;8.602;2023-02-04T11:16:09;20.65;35.04
77052;SHT30;65980;44.898;8.602;2023-02-04T11:19:30;18.72;35.80
77052;SHT30;65980;44.898;8.602;2023-02-04T11:22:44;17.44;41.05
77052;SHT30;65980;44.898;8.602;2023-02-04T11:26:06;17.11;42.51
77052;SHT30;65980;44.898;8.602;2023-02-04T11:32:34;18.01;41.33
77052;SHT30;65980;44.898;8.602;2023-02-04T11:35:59;17.85;39.56
77052;SHT30;65980;44.898;8.602;2023-02-04T11:39:14;17.35;42.56
77052;SHT30;65980;44.898;8.602;2023-02-04T11:42:37;17.99;41.44
77052;SHT30;65980;44.898;8.602;2023-02-04T11:45:43;19.02;39.43
77052;SHT30;65980;44.898;8.602;2023-02-04T11:48:53;19.11;38.58
77052;SHT30;65980;44.898;8.602;2023-02-04T11:52:06;19.92;36.62
77052;SHT30;65980;44.898;8.602;2023-02-04T11:55:13;20.42;34.87
77052;SHT30;65980;44.898;8.602;2023-02-04T11:58:20;20.41;34.66
77052;SHT30;65980;44.898;8.602;2023-02-04T12:01:30;20.64;35.19
77052;SHT30;65980;44.898;8.602;2023-02-04T12:04:35;21.10;34.84
77052;SHT30;65980;44.898;8.602;2023-02-04T12:07:41;21.59;34.91
77052;SHT30;65980;44.898;8.602;2023-02-04T12:14:15;21.15;36.71
77052;SHT30;65980;44.898;8.602;2023-02-04T12:17:21;22.73;34.40
77052;SHT30;65980;44.898;8.602;2023-02-04T12:20:27;21.92;34.95
77052;SHT30;65980;44.898;8.602;2023-02-04T12:23:32;22.04;34.26
77052;SHT30;65980;44.898;8.602;2023-02-04T12:26:37;23.19;33.11
77052;SHT30;65980;44.898;8.602;2023-02-04T12:29:42;23.44;33.48
77052;SHT30;65980;44.898;8.602;2023-02-04T12:32:47;23.06;34.01
77052;SHT30;65980;44.898;8.602;2023-02-04T12:35:53;22.75;34.30
77052;SHT30;65980;44.898;8.602;2023-02-04T12:38:57;22.31;35.28
77052;SHT30;65980;44.898;8.602;2023-02-04T12:42:02;22.36;34.46
77052;SHT30;65980;44.898;8.602;2023-02-04T12:45:09;24.19;32.01
77052;SHT30;65980;44.898;8.602;2023-02-04T12:48:14;24.14;30.91
77052;SHT30;65980;44.898;8.602;2023-02-04T12:51:19;21.81;35.44
77052;SHT30;65980;44.898;8.602;2023-02-04T12:54:24;20.61;37.73
77052;SHT30;65980;44.898;8.602;2023-02-04T12:57:28;19.76;38.87
77052;SHT30;65980;44.898;8.602;2023-02-04T13:00:33;19.50;39.31
77052;SHT30;65980;44.898;8.602;2023-02-04T13:03:38;19.28;41.90
77052;SHT30;65980;44.898;8.602;2023-02-04T13:06:44;18.96;43.12
77052;SHT30;65980;44.898;8.602;2023-02-04T13:09:49;19.25;41.87
77052;SHT30;65980;44.898;8.602;2023-02-04T13:12:54;19.38;42.25
77052;SHT30;65980;44.898;8.602;2023-02-04T13:15:58;19.85;40.77
77052;SHT30;65980;44.898;8.602;2023-02-04T13:19:02;19.82;41.16
77052;SHT30;65980;44.898;8.602;2023-02-04T13:22:10;21.51;38.60
77052;SHT30;65980;44.898;8.602;2023-02-04T13:25:15;23.03;36.07
77052;SHT30;65980;44.898;8.602;2023-02-04T13:28:20;23.13;34.34
77052;SHT30;65980;44.898;8.602;2023-02-04T13:31:25;23.06;35.22
77052;SHT30;65980;44.898;8.602;2023-02-04T13:34:30;21.27;38.76
77052;SHT30;65980;44.898;8.602;2023-02-04T13:37:36;20.69;39.41
77052;SHT30;65980;44.898;8.602;2023-02-04T13:40:42;20.07;37.90
77052;SHT30;65980;44.898;8.602;2023-02-04T13:43:46;20.35;39.28
77052;SHT30;65980;44.898;8.602;2023-02-04T13:46:55;20.42;41.50
77052;SHT30;65980;44.898;8.602;2023-02-04T13:49:59;20.51;40.88
77052;SHT30;65980;44.898;8.602;2023-02-04T13:53:05;20.62;39.55
77052;SHT30;65980;44.898;8.602;2023-02-04T13:56:10;20.34;38.86
77052;SHT30;65980;44.898;8.602;2023-02-04T13:59:14;20.28;40.78
77052;SHT30;65980;44.898;8.602;2023-02-04T14:02:20;20.03;40.87
77052;SHT30;65980;44.898;8.602;2023-02-04T14:05:26;20.12;40.96
77052;SHT30;65980;44.898;8.602;2023-02-04T14:08:32;20.24;39.67
77052;SHT30;65980;44.898;8.602;2023-02-04T14:15:12;20.17;40.94
77052;SHT30;65980;44.898;8.602;2023-02-04T14:18:17;19.97;41.22
77052;SHT30;65980;44.898;8.602;2023-02-04T14:21:22;19.92;41.73
77052;SHT30;65980;44.898;8.602;2023-02-04T14:24:26;19.94;41.19
77052;SHT30;65980;44.898;8.602;2023-02-04T14:27:31;19.86;41.92
77052;SHT30;65980;44.898;8.602;2023-02-04T14:30:35;19.72;42.14
77052;SHT30;65980;44.898;8.602;2023-02-04T14:33:40;19.73;42.56
77052;SHT30;65980;44.898;8.602;2023-02-04T14:36:46;19.47;43.04
77052;SHT30;65980;44.898;8.602;2023-02-04T14:39:50;19.47;42.53
77052;SHT30;65980;44.898;8.602;2023-02-04T14:42:54;19.38;41.60
77052;SHT30;65980;44.898;8.602;2023-02-04T14:45:58;19.34;41.93
77052;SHT30;65980;44.898;8.602;2023-02-04T14:49:02;19.21;43.91
77052;SHT30;65980;44.898;8.602;2023-02-04T14:52:06;19.06;42.88
77052;SHT30;65980;44.898;8.602;2023-02-04T14:55:10;19.08;43.34
77052;SHT30;65980;44.898;8.602;2023-02-04T14:58:15;18.96;42.92
77052;SHT30;65980;44.898;8.602;2023-02-04T15:01:20;18.51;44.83
77052;SHT30;65980;44.898;8.602;2023-02-04T15:04:25;18.77;45.22
77052;SHT30;65980;44.898;8.602;2023-02-04T15:07:30;19.02;43.99
77052;SHT30;65980;44.898;8.602;2023-02-04T15:10:34;18.86;43.94
77052;SHT30;65980;44.898;8.602;2023-02-04T15:13:39;18.85;43.63
77052;SHT30;65980;44.898;8.602;2023-02-04T15:16:43;19.07;44.10
77052;SHT30;65980;44.898;8.602;2023-02-04T15:20:00;19.17;41.51
77052;SHT30;65980;44.898;8.602;2023-02-04T15:23:07;19.21;42.96
77052;SHT30;65980;44.898;8.602;2023-02-04T15:26:12;19.23;43.51
77052;SHT30;65980;44.898;8.602;2023-02-04T15:29:18;19.21;43.47
77052;SHT30;65980;44.898;8.602;2023-02-04T15:32:26;19.11;43.69
77052;SHT30;65980;44.898;8.602;2023-02-04T15:35:31;18.96;43.56
77052;SHT30;65980;44.898;8.602;2023-02-04T15:38:35;18.89;43.28
77052;SHT30;65980;44.898;8.602;2023-02-04T15:41:39;18.72;41.20
77052;SHT30;65980;44.898;8.602;2023-02-04T15:44:43;18.65;41.95
77052;SHT30;65980;44.898;8.602;2023-02-04T15:47:47;18.44;39.92
77052;SHT30;65980;44.898;8.602;2023-02-04T15:50:53;18.51;35.95
77052;SHT30;65980;44.898;8.602;2023-02-04T15:53:58;18.59;36.56
77052;SHT30;65980;44.898;8.602;2023-02-04T15:57:04;18.52;35.04
77052;SHT30;65980;44.898;8.602;2023-02-04T16:00:10;18.44;33.89
77052;SHT30;65980;44.898;8.602;2023-02-04T16:03:14;18.47;34.02
77052;SHT30;65980;44.898;8.602;2023-02-04T16:06:19;18.40;33.55
77052;SHT30;65980;44.898;8.602;2023-02-04T16:09:24;18.35;33.29
77052;SHT30;65980;44.898;8.602;2023-02-04T16:12:29;18.21;33.41
77052;SHT30;65980;44.898;8.602;2023-02-04T16:15:38;18.18;34.15
77052;SHT30;65980;44.898;8.602;2023-02-04T16:18:43;18.03;33.72
77052;SHT30;65980;44.898;8.602;2023-02-04T16:21:47;17.76;34.45
77052;SHT30;65980;44.898;8.602;2023-02-04T16:24:51;17.75;34.42
77052;SHT30;65980;44.898;8.602;2023-02-04T16:27:56;17.79;34.13
77052;SHT30;65980;44.898;8.602;2023-02-04T16:31:04;17.70;34.44
77052;SHT30;65980;44.898;8.602;2023-02-04T16:34:17;17.56;33.57
77052;SHT30;65980;44.898;8.602;2023-02-04T16:52:37;17.04;35.12
77052;SHT30;65980;44.898;8.602;2023-02-04T17:06:16;16.48;35.92
77052;SHT30;65980;44.898;8.602;2023-02-04T17:15:09;16.17;36.52
77052;SHT30;65980;44.898;8.602;2023-02-04T17:18:50;15.90;40.12
77052;SHT30;65980;44.898;8.602;2023-02-04T17:22:29;15.74;39.35
77052;SHT30;65980;44.898;8.602;2023-02-04T17:25:58;15.39;41.39
77052;SHT30;65980;44.898;8.602;2023-02-04T17:29:32;15.12;42.12
77052;SHT30;65980;44.898;8.602;2023-02-04T17:33:12;14.75;42.16
77052;SHT30;65980;44.898;8.602;2023-02-04T17:36:52;14.68;42.44
77052;SHT30;65980;44.898;8.602;2023-02-04T17:40:23;14.56;42.41
77052;SHT30;65980;44.898;8.602;2023-02-04T17:44:23;14.56;43.67
77052;SHT30;65980;44.898;8.602;2023-02-04T17:48:01;14.58;41.69
77052;SHT30;65980;44.898;8.602;2023-02-04T17:51:06;14.49;45.24
77052;SHT30;65980;44.898;8.602;2023-02-04T17:54:32;14.29;44.94
77052;SHT30;65980;44.898;8.602;2023-02-04T17:58:11;13.96;42.87
77052;SHT30;65980;44.898;8.602;2023-02-04T18:01:28;13.80;44.91
77052;SHT30;65980;44.898;8.602;2023-02-04T18:05:11;13.89;42.73
77052;SHT30;65980;44.898;8.602;2023-02-04T18:08:24;13.89;41.46
77052;SHT30;65980;44.898;8.602;2023-02-04T18:11:48;13.94;43.06
77052;SHT30;65980;44.898;8.602;2023-02-04T18:19:13;14.13;40.03
77052;SHT30;65980;44.898;8.602;2023-02-04T18:23:08;14.28;38.33
77052;SHT30;65980;44.898;8.602;2023-02-04T18:26:55;14.41;36.24
77052;SHT30;65980;44.898;8.602;2023-02-04T18:30:24;14.62;35.28
77052;SHT30;65980;44.898;8.602;2023-02-04T18:33:57;14.61;37.46
77052;SHT30;65980;44.898;8.602;2023-02-04T18:37:55;14.52;36.11
77052;SHT30;65980;44.898;8.602;2023-02-04T18:49:08;14.46;36.10
77052;SHT30;65980;44.898;8.602;2023-02-04T19:09:57;12.53;43.48
77052;SHT30;65980;44.898;8.602;2023-02-04T19:13:38;12.20;44.58
77052;SHT30;65980;44.898;8.602;2023-02-04T19:17:28;12.08;46.42
77052;SHT30;65980;44.898;8.602;2023-02-04T19:20:42;11.63;46.65
77052;SHT30;65980;44.898;8.602;2023-02-04T19:27:31;11.31;48.73
77052;SHT30;65980;44.898;8.602;2023-02-04T19:30:52;11.56;46.38
77052;SHT30;65980;44.898;8.602;2023-02-04T19:34:31;11.66;44.97
77052;SHT30;65980;44.898;8.602;2023-02-04T19:41:49;11.72;45.56
77052;SHT30;65980;44.898;8.602;2023-02-04T19:45:29;11.61;46.08
77052;SHT30;65980;44.898;8.602;2023-02-04T19:48:40;11.70;45.99
77052;SHT30;65980;44.898;8.602;2023-02-04T19:52:27;11.49;47.52
77052;SHT30;65980;44.898;8.602;2023-02-04T19:55:56;11.59;47.14
77052;SHT30;65980;44.898;8.602;2023-02-04T20:04:00;10.87;48.57
77052;SHT30;65980;44.898;8.602;2023-02-04T20:08:41;10.83;48.77
77052;SHT30;65980;44.898;8.602;2023-02-04T20:15:53;10.42;49.47
77052;SHT30;65980;44.898;8.602;2023-02-04T20:37:01;12.21;49.51
77052;SHT30;65980;44.898;8.602;2023-02-04T20:44:38;11.95;51.18
77052;SHT30;65980;44.898;8.602;2023-02-04T21:05:26;11.22;60.86
77052;SHT30;65980;44.898;8.602;2023-02-04T21:08:53;11.24;61.52
77052;SHT30;65980;44.898;8.602;2023-02-04T21:12:51;10.79;65.06
77052;SHT30;65980;44.898;8.602;2023-02-04T21:16:28;10.67;67.00
77052;SHT30;65980;44.898;8.602;2023-02-04T21:20:10;10.53;68.16
77052;SHT30;65980;44.898;8.602;2023-02-04T21:28:26;9.83;71.00
77052;SHT30;65980;44.898;8.602;2023-02-04T21:31:47;9.73;72.16
77052;SHT30;65980;44.898;8.602;2023-02-04T21:34:52;9.56;73.18
77052;SHT30;65980;44.898;8.602;2023-02-04T21:38:05;9.31;74.12
77052;SHT30;65980;44.898;8.602;2023-02-04T21:42:29;9.27;73.96
77052;SHT30;65980;44.898;8.602;2023-02-04T21:45:59;9.35;73.64
77052;SHT30;65980;44.898;8.602;2023-02-04T21:49:22;9.10;74.17
77052;SHT30;65980;44.898;8.602;2023-02-04T21:52:42;9.28;73.60
77052;SHT30;65980;44.898;8.602;2023-02-04T21:55:57;8.53;76.77
77052;SHT30;65980;44.898;8.602;2023-02-04T21:59:04;8.31;78.07
77052;SHT30;65980;44.898;8.602;2023-02-04T22:02:13;8.62;76.30
77052;SHT30;65980;44.898;8.602;2023-02-04T22:06:09;8.76;76.10
77052;SHT30;65980;44.898;8.602;2023-02-04T22:09:26;8.28;78.74
77052;SHT30;65980;44.898;8.602;2023-02-04T22:12:31;8.28;78.81
77052;SHT30;65980;44.898;8.602;2023-02-04T22:15:48;8.17;79.83
77052;SHT30;65980;44.898;8.602;2023-02-04T22:19:22;8.08;80.10
77052;SHT30;65980;44.898;8.602;2023-02-04T22:22:26;8.10;80.29
77052;SHT30;65980;44.898;8.602;2023-02-04T22:25:32;8.22;79.49
77052;SHT30;65980;44.898;8.602;2023-02-04T22:28:52;8.11;80.90